Floris, IA (52560)

11:50 CDT le 27 août 2016 (GMT -0500)
Ottumwa | | Change Station

Alt. 675 ft 41.00 °N, 92.44 °W | Updated 10 seconds ago

Overcast
Couvert
77.7 ° F
Paraît 79 ° F
N
0.0
Vent Variable Vent de NNO
Gusts 0.0 mph

Aujourd'hui
Haut(e) -- | Bas -- ° F
--% Risque de précip.
Hier
Haut(e) -- | Bas -- ° F
Precip. -- pouce
Pression 30.02 pouce
Visibilité 10.0 Miles terrestres
Nuages Couvert 1300 ft
indice de chaleur 79 ° F
Point de rosée 55 ° F
Humidité 46%
Précipitations 0.14 pouce
Profondeur de la couche neigeuse Non disponible.
6:31 AM 7:48 PM
Lune descendante, 23% visible
METAR KOTM 271553Z AUTO 24008KT 10SM OVC013 23/20 A3004 RMK AO2 SLP166 T02330200
Pression 30.02 pouce
Visibilité 10.0 Miles terrestres
Nuages Couvert 1300 ft
indice de chaleur 79 ° F
Point de rosée 55 ° F
Humidité 46%
Précipitations 0.14 pouce
Profondeur de la couche neigeuse Non disponible.
6:31 AM 7:48 PM
Lune descendante, 23% visible
METAR KOTM 271553Z AUTO 24008KT 10SM OVC013 23/20 A3004 RMK AO2 SLP166 T02330200

10-Day Weather Forecast

Almanac

Astronomie

Aug. 27, 2016 Lever Coucher
Temps réel
Crépuscule civil
Crépuscule nautique
Crépuscule astronomique
Lune
Durée de lumière visible
Longueur du jour
Tomorrow will be .
, % of the Moon is Illuminated

Extrêmes aujourd'hui

State Highs State Lows

Community

WunderPhotos

Upload Photos

1,935,377 Photos téléchargées !

WunderBlog® & News

Nearby

Qualité de l'air

  Qualité de l'air Indice de la qualité de l'air Polluant
Not available.

Épaisseur de neige

Station Depth Altitude

Activité sismique

Ville Distance Mag. Time & Date
Minimum magnitude displayed is 2.5.

Températures des eaux côtières

Lieu Température

Stations

Stations météo à proximité

Emplacement de la station Température Refroidissement éolien Point de rosée Humidité Vent Precip. Alt. Mise à jour Type
                   

Watches & Warnings

There are currently no watches in effect.